sensor_id;sensor_type;location;lat;lon;timestamp;P1;durP1;ratioP1;P2;durP2;ratioP2
77701;SDS011;66868;42.708;23.404;2024-03-08T00:01:06;4.10;;;2.90;;
77701;SDS011;66868;42.708;23.404;2024-03-08T00:03:32;3.38;;;2.88;;
77701;SDS011;66868;42.708;23.404;2024-03-08T00:05:57;2.97;;;2.58;;
77701;SDS011;66868;42.708;23.404;2024-03-08T00:08:23;2.63;;;2.42;;
77701;SDS011;66868;42.708;23.404;2024-03-08T00:10:49;3.80;;;3.10;;
77701;SDS011;66868;42.708;23.404;2024-03-08T00:13:15;3.22;;;2.80;;
77701;SDS011;66868;42.708;23.404;2024-03-08T00:15:41;3.17;;;2.97;;
77701;SDS011;66868;42.708;23.404;2024-03-08T00:18:06;1.80;;;1.70;;
77701;SDS011;66868;42.708;23.404;2024-03-08T00:20:32;1.50;;;1.40;;
77701;SDS011;66868;42.708;23.404;2024-03-08T00:22:58;1.50;;;1.50;;
77701;SDS011;66868;42.708;23.404;2024-03-08T00:25:23;1.90;;;1.80;;
77701;SDS011;66868;42.708;23.404;2024-03-08T00:27:49;2.45;;;2.25;;
77701;SDS011;66868;42.708;23.404;2024-03-08T00:30:14;12.68;;;5.90;;
77701;SDS011;66868;42.708;23.404;2024-03-08T00:32:40;4.07;;;3.67;;
77701;SDS011;66868;42.708;23.404;2024-03-08T00:35:06;2.22;;;2.13;;
77701;SDS011;66868;42.708;23.404;2024-03-08T00:37:32;2.22;;;1.70;;
77701;SDS011;66868;42.708;23.404;2024-03-08T00:39:59;1.50;;;1.50;;
77701;SDS011;66868;42.708;23.404;2024-03-08T00:42:25;1.20;;;1.20;;
77701;SDS011;66868;42.708;23.404;2024-03-08T00:44:50;1.50;;;1.40;;
77701;SDS011;66868;42.708;23.404;2024-03-08T00:47:16;1.55;;;1.45;;
77701;SDS011;66868;42.708;23.404;2024-03-08T00:49:41;1.02;;;1.02;;
77701;SDS011;66868;42.708;23.404;2024-03-08T00:52:07;1.10;;;1.10;;
77701;SDS011;66868;42.708;23.404;2024-03-08T00:54:35;1.00;;;1.00;;
77701;SDS011;66868;42.708;23.404;2024-03-08T00:57:01;0.93;;;0.93;;
77701;SDS011;66868;42.708;23.404;2024-03-08T00:59:30;0.90;;;0.90;;
77701;SDS011;66868;42.708;23.404;2024-03-08T01:02:01;1.00;;;1.00;;
77701;SDS011;66868;42.708;23.404;2024-03-08T01:04:27;3.03;;;2.80;;
77701;SDS011;66868;42.708;23.404;2024-03-08T01:06:56;4.43;;;3.65;;
77701;SDS011;66868;42.708;23.404;2024-03-08T01:09:25;5.10;;;4.20;;
77701;SDS011;66868;42.708;23.404;2024-03-08T01:11:52;5.78;;;3.58;;
77701;SDS011;66868;42.708;23.404;2024-03-08T01:14:21;3.40;;;3.20;;
77701;SDS011;66868;42.708;23.404;2024-03-08T01:16:48;4.03;;;3.72;;
77701;SDS011;66868;42.708;23.404;2024-03-08T01:19:14;5.60;;;4.78;;
77701;SDS011;66868;42.708;23.404;2024-03-08T01:21:40;6.30;;;5.05;;
77701;SDS011;66868;42.708;23.404;2024-03-08T01:24:06;1.95;;;1.85;;
77701;SDS011;66868;42.708;23.404;2024-03-08T01:26:31;2.13;;;1.70;;
77701;SDS011;66868;42.708;23.404;2024-03-08T01:28:59;1.77;;;1.70;;
77701;SDS011;66868;42.708;23.404;2024-03-08T01:31:24;2.30;;;2.10;;
77701;SDS011;66868;42.708;23.404;2024-03-08T01:33:50;3.38;;;3.10;;
77701;SDS011;66868;42.708;23.404;2024-03-08T01:36:15;2.70;;;2.22;;
77701;SDS011;66868;42.708;23.404;2024-03-08T01:38:42;2.47;;;2.38;;
77701;SDS011;66868;42.708;23.404;2024-03-08T01:41:07;2.10;;;2.00;;
77701;SDS011;66868;42.708;23.404;2024-03-08T01:43:34;4.88;;;2.33;;
77701;SDS011;66868;42.708;23.404;2024-03-08T01:45:59;1.92;;;1.83;;
77701;SDS011;66868;42.708;23.404;2024-03-08T01:48:27;1.73;;;1.63;;
77701;SDS011;66868;42.708;23.404;2024-03-08T01:50:54;1.85;;;1.60;;
77701;SDS011;66868;42.708;23.404;2024-03-08T01:53:21;1.40;;;1.40;;
77701;SDS011;66868;42.708;23.404;2024-03-08T01:55:48;1.42;;;1.42;;
77701;SDS011;66868;42.708;23.404;2024-03-08T01:58:14;1.48;;;1.38;;
77701;SDS011;66868;42.708;23.404;2024-03-08T02:00:42;1.25;;;1.25;;
77701;SDS011;66868;42.708;23.404;2024-03-08T02:03:10;1.10;;;1.10;;
77701;SDS011;66868;42.708;23.404;2024-03-08T02:05:40;0.85;;;0.85;;
77701;SDS011;66868;42.708;23.404;2024-03-08T02:08:06;1.63;;;1.52;;
77701;SDS011;66868;42.708;23.404;2024-03-08T02:10:33;1.30;;;1.30;;
77701;SDS011;66868;42.708;23.404;2024-03-08T02:13:01;3.17;;;0.88;;
77701;SDS011;66868;42.708;23.404;2024-03-08T02:15:43;1.73;;;1.60;;
77701;SDS011;66868;42.708;23.404;2024-03-08T02:18:16;1.60;;;1.60;;
77701;SDS011;66868;42.708;23.404;2024-03-08T02:20:46;1.48;;;1.48;;
77701;SDS011;66868;42.708;23.404;2024-03-08T02:23:12;1.00;;;1.00;;
77701;SDS011;66868;42.708;23.404;2024-03-08T02:25:39;1.38;;;1.13;;
77701;SDS011;66868;42.708;23.404;2024-03-08T02:28:06;1.65;;;1.55;;
77701;SDS011;66868;42.708;23.404;2024-03-08T02:30:36;2.53;;;1.20;;
77701;SDS011;66868;42.708;23.404;2024-03-08T02:33:02;1.10;;;1.10;;
77701;SDS011;66868;42.708;23.404;2024-03-08T02:35:27;1.17;;;1.17;;
77701;SDS011;66868;42.708;23.404;2024-03-08T02:37:53;1.05;;;1.00;;
77701;SDS011;66868;42.708;23.404;2024-03-08T02:40:18;1.30;;;1.17;;
77701;SDS011;66868;42.708;23.404;2024-03-08T02:42:44;1.92;;;1.83;;
77701;SDS011;66868;42.708;23.404;2024-03-08T02:45:09;1.67;;;1.30;;
77701;SDS011;66868;42.708;23.404;2024-03-08T02:47:35;1.10;;;1.10;;
77701;SDS011;66868;42.708;23.404;2024-03-08T02:50:01;3.97;;;1.00;;
77701;SDS011;66868;42.708;23.404;2024-03-08T02:52:27;1.13;;;1.13;;
77701;SDS011;66868;42.708;23.404;2024-03-08T02:54:52;1.00;;;1.00;;
77701;SDS011;66868;42.708;23.404;2024-03-08T02:57:18;0.80;;;0.80;;
77701;SDS011;66868;42.708;23.404;2024-03-08T02:59:43;1.60;;;0.90;;
77701;SDS011;66868;42.708;23.404;2024-03-08T03:02:10;0.85;;;0.85;;
77701;SDS011;66868;42.708;23.404;2024-03-08T03:04:39;1.00;;;1.00;;
77701;SDS011;66868;42.708;23.404;2024-03-08T03:07:05;1.00;;;1.00;;
77701;SDS011;66868;42.708;23.404;2024-03-08T03:09:30;1.17;;;1.17;;
77701;SDS011;66868;42.708;23.404;2024-03-08T03:11:58;1.02;;;1.02;;
77701;SDS011;66868;42.708;23.404;2024-03-08T03:14:24;2.75;;;1.55;;
77701;SDS011;66868;42.708;23.404;2024-03-08T03:16:51;2.35;;;1.73;;
77701;SDS011;66868;42.708;23.404;2024-03-08T03:19:17;1.40;;;1.40;;
77701;SDS011;66868;42.708;23.404;2024-03-08T03:21:42;3.15;;;1.25;;
77701;SDS011;66868;42.708;23.404;2024-03-08T03:24:08;1.08;;;1.08;;
77701;SDS011;66868;42.708;23.404;2024-03-08T03:26:37;0.70;;;0.70;;
77701;SDS011;66868;42.708;23.404;2024-03-08T03:29:06;0.90;;;0.90;;
77701;SDS011;66868;42.708;23.404;2024-03-08T03:31:34;1.27;;;1.27;;
77701;SDS011;66868;42.708;23.404;2024-03-08T03:34:01;1.52;;;1.42;;
77701;SDS011;66868;42.708;23.404;2024-03-08T03:36:29;1.40;;;1.30;;
77701;SDS011;66868;42.708;23.404;2024-03-08T03:38:55;1.38;;;1.35;;
77701;SDS011;66868;42.708;23.404;2024-03-08T03:41:30;2.05;;;1.10;;
77701;SDS011;66868;42.708;23.404;2024-03-08T03:43:56;1.20;;;1.20;;
77701;SDS011;66868;42.708;23.404;2024-03-08T03:46:21;1.50;;;1.17;;
77701;SDS011;66868;42.708;23.404;2024-03-08T03:48:47;1.20;;;1.10;;
77701;SDS011;66868;42.708;23.404;2024-03-08T03:51:12;1.17;;;1.17;;
77701;SDS011;66868;42.708;23.404;2024-03-08T03:53:40;1.48;;;1.38;;
77701;SDS011;66868;42.708;23.404;2024-03-08T03:56:06;1.15;;;1.00;;
77701;SDS011;66868;42.708;23.404;2024-03-08T03:58:32;0.90;;;0.90;;
77701;SDS011;66868;42.708;23.404;2024-03-08T04:00:58;3.70;;;0.90;;
77701;SDS011;66868;42.708;23.404;2024-03-08T04:03:23;0.95;;;0.95;;
77701;SDS011;66868;42.708;23.404;2024-03-08T04:05:49;1.50;;;0.90;;
77701;SDS011;66868;42.708;23.404;2024-03-08T04:08:16;0.90;;;0.90;;
77701;SDS011;66868;42.708;23.404;2024-03-08T04:10:42;0.90;;;0.90;;
77701;SDS011;66868;42.708;23.404;2024-03-08T04:13:07;2.15;;;0.95;;
77701;SDS011;66868;42.708;23.404;2024-03-08T04:15:34;0.90;;;0.90;;
77701;SDS011;66868;42.708;23.404;2024-03-08T04:18:00;0.75;;;0.75;;
77701;SDS011;66868;42.708;23.404;2024-03-08T04:20:26;0.90;;;0.90;;
77701;SDS011;66868;42.708;23.404;2024-03-08T04:22:51;0.60;;;0.60;;
77701;SDS011;66868;42.708;23.404;2024-03-08T04:25:17;0.80;;;0.63;;
77701;SDS011;66868;42.708;23.404;2024-03-08T04:27:42;1.00;;;1.00;;
77701;SDS011;66868;42.708;23.404;2024-03-08T04:30:09;0.65;;;0.65;;
77701;SDS011;66868;42.708;23.404;2024-03-08T04:32:35;1.30;;;1.13;;
77701;SDS011;66868;42.708;23.404;2024-03-08T04:35:01;1.13;;;1.02;;
77701;SDS011;66868;42.708;23.404;2024-03-08T04:37:27;2.17;;;2.00;;
77701;SDS011;66868;42.708;23.404;2024-03-08T04:39:54;6.32;;;3.75;;
77701;SDS011;66868;42.708;23.404;2024-03-08T04:42:20;13.57;;;6.95;;
77701;SDS011;66868;42.708;23.404;2024-03-08T04:44:46;10.60;;;5.65;;
77701;SDS011;66868;42.708;23.404;2024-03-08T04:47:12;1.30;;;1.30;;
77701;SDS011;66868;42.708;23.404;2024-03-08T04:49:37;1.55;;;1.45;;
77701;SDS011;66868;42.708;23.404;2024-03-08T04:52:03;2.30;;;2.20;;
77701;SDS011;66868;42.708;23.404;2024-03-08T04:54:32;2.60;;;2.40;;
77701;SDS011;66868;42.708;23.404;2024-03-08T04:56:57;2.25;;;2.05;;
77701;SDS011;66868;42.708;23.404;2024-03-08T04:59:25;4.07;;;3.67;;
77701;SDS011;66868;42.708;23.404;2024-03-08T05:01:52;4.07;;;3.72;;
77701;SDS011;66868;42.708;23.404;2024-03-08T05:04:17;4.20;;;3.80;;
77701;SDS011;66868;42.708;23.404;2024-03-08T05:06:43;8.00;;;3.88;;
77701;SDS011;66868;42.708;23.404;2024-03-08T05:09:09;3.95;;;3.65;;
77701;SDS011;66868;42.708;23.404;2024-03-08T05:11:41;9.32;;;4.88;;
77701;SDS011;66868;42.708;23.404;2024-03-08T05:14:10;5.57;;;5.07;;
77701;SDS011;66868;42.708;23.404;2024-03-08T05:16:37;3.78;;;3.45;;
77701;SDS011;66868;42.708;23.404;2024-03-08T05:19:03;2.67;;;2.47;;
77701;SDS011;66868;42.708;23.404;2024-03-08T05:21:28;3.22;;;2.53;;
77701;SDS011;66868;42.708;23.404;2024-03-08T05:23:54;3.67;;;3.38;;
77701;SDS011;66868;42.708;23.404;2024-03-08T05:26:19;3.17;;;2.90;;
77701;SDS011;66868;42.708;23.404;2024-03-08T05:28:47;5.22;;;4.82;;
77701;SDS011;66868;42.708;23.404;2024-03-08T05:31:22;8.10;;;6.22;;
77701;SDS011;66868;42.708;23.404;2024-03-08T05:33:48;9.18;;;5.13;;
77701;SDS011;66868;42.708;23.404;2024-03-08T05:36:14;8.68;;;5.13;;
77701;SDS011;66868;42.708;23.404;2024-03-08T05:38:41;5.82;;;4.22;;
77701;SDS011;66868;42.708;23.404;2024-03-08T05:41:08;6.05;;;4.72;;
77701;SDS011;66868;42.708;23.404;2024-03-08T05:43:34;6.50;;;4.90;;
77701;SDS011;66868;42.708;23.404;2024-03-08T05:46:00;5.82;;;4.63;;
77701;SDS011;66868;42.708;23.404;2024-03-08T05:48:25;4.85;;;4.35;;
77701;SDS011;66868;42.708;23.404;2024-03-08T05:50:51;6.00;;;5.35;;
77701;SDS011;66868;42.708;23.404;2024-03-08T05:53:16;5.75;;;4.97;;
77701;SDS011;66868;42.708;23.404;2024-03-08T05:55:42;11.93;;;8.43;;
77701;SDS011;66868;42.708;23.404;2024-03-08T05:58:07;4.18;;;3.83;;
77701;SDS011;66868;42.708;23.404;2024-03-08T06:00:33;3.72;;;3.45;;
77701;SDS011;66868;42.708;23.404;2024-03-08T06:03:01;10.30;;;8.27;;
77701;SDS011;66868;42.708;23.404;2024-03-08T06:05:27;5.38;;;4.88;;
77701;SDS011;66868;42.708;23.404;2024-03-08T06:07:53;5.93;;;4.80;;
77701;SDS011;66868;42.708;23.404;2024-03-08T06:10:18;5.05;;;4.60;;
77701;SDS011;66868;42.708;23.404;2024-03-08T06:12:44;4.60;;;4.10;;
77701;SDS011;66868;42.708;23.404;2024-03-08T06:15:10;3.90;;;3.60;;
77701;SDS011;66868;42.708;23.404;2024-03-08T06:17:40;4.90;;;4.40;;
77701;SDS011;66868;42.708;23.404;2024-03-08T06:20:06;4.60;;;4.20;;
77701;SDS011;66868;42.708;23.404;2024-03-08T06:22:37;5.70;;;5.20;;
77701;SDS011;66868;42.708;23.404;2024-03-08T06:25:05;6.90;;;4.45;;
77701;SDS011;66868;42.708;23.404;2024-03-08T06:27:32;6.25;;;5.28;;
77701;SDS011;66868;42.708;23.404;2024-03-08T06:29:59;9.75;;;5.43;;
77701;SDS011;66868;42.708;23.404;2024-03-08T06:32:29;5.95;;;5.35;;
77701;SDS011;66868;42.708;23.404;2024-03-08T06:34:55;4.78;;;4.38;;
77701;SDS011;66868;42.708;23.404;2024-03-08T06:37:21;8.38;;;5.63;;
77701;SDS011;66868;42.708;23.404;2024-03-08T06:39:47;5.22;;;4.72;;
77701;SDS011;66868;42.708;23.404;2024-03-08T06:42:13;5.03;;;4.72;;
77701;SDS011;66868;42.708;23.404;2024-03-08T06:44:39;4.55;;;4.20;;
77701;SDS011;66868;42.708;23.404;2024-03-08T06:47:13;3.47;;;3.28;;
77701;SDS011;66868;42.708;23.404;2024-03-08T06:49:40;4.35;;;3.92;;
77701;SDS011;66868;42.708;23.404;2024-03-08T06:52:06;7.03;;;5.40;;
77701;SDS011;66868;42.708;23.404;2024-03-08T06:54:34;6.97;;;4.63;;
77701;SDS011;66868;42.708;23.404;2024-03-08T06:57:01;5.35;;;4.55;;
77701;SDS011;66868;42.708;23.404;2024-03-08T06:59:28;4.45;;;4.10;;
77701;SDS011;66868;42.708;23.404;2024-03-08T07:01:54;4.25;;;3.85;;
77701;SDS011;66868;42.708;23.404;2024-03-08T07:04:19;3.47;;;3.08;;
77701;SDS011;66868;42.708;23.404;2024-03-08T07:06:47;4.82;;;4.53;;
77701;SDS011;66868;42.708;23.404;2024-03-08T07:09:15;4.75;;;4.40;;
77701;SDS011;66868;42.708;23.404;2024-03-08T07:11:44;4.47;;;3.42;;
77701;SDS011;66868;42.708;23.404;2024-03-08T07:14:09;5.20;;;4.70;;
77701;SDS011;66868;42.708;23.404;2024-03-08T07:16:35;4.90;;;4.45;;
77701;SDS011;66868;42.708;23.404;2024-03-08T07:19:01;4.65;;;4.25;;
77701;SDS011;66868;42.708;23.404;2024-03-08T07:21:26;5.30;;;4.80;;
77701;SDS011;66868;42.708;23.404;2024-03-08T07:23:52;11.73;;;9.70;;
77701;SDS011;66868;42.708;23.404;2024-03-08T07:26:27;5.18;;;4.53;;
77701;SDS011;66868;42.708;23.404;2024-03-08T07:28:52;3.75;;;3.55;;
77701;SDS011;66868;42.708;23.404;2024-03-08T07:31:22;3.88;;;3.67;;
77701;SDS011;66868;42.708;23.404;2024-03-08T07:33:50;4.50;;;4.10;;
77701;SDS011;66868;42.708;23.404;2024-03-08T07:36:16;3.97;;;3.67;;
77701;SDS011;66868;42.708;23.404;2024-03-08T07:38:41;4.35;;;4.05;;
77701;SDS011;66868;42.708;23.404;2024-03-08T07:41:06;3.50;;;3.30;;
77701;SDS011;66868;42.708;23.404;2024-03-08T07:43:32;4.10;;;3.80;;
77701;SDS011;66868;42.708;23.404;2024-03-08T07:45:58;3.78;;;3.50;;
77701;SDS011;66868;42.708;23.404;2024-03-08T07:48:23;5.82;;;5.32;;
77701;SDS011;66868;42.708;23.404;2024-03-08T07:50:49;3.78;;;3.53;;
77701;SDS011;66868;42.708;23.404;2024-03-08T07:53:15;3.65;;;3.40;;
77701;SDS011;66868;42.708;23.404;2024-03-08T07:55:40;5.93;;;4.75;;
77701;SDS011;66868;42.708;23.404;2024-03-08T07:58:07;3.58;;;3.28;;
77701;SDS011;66868;42.708;23.404;2024-03-08T08:00:35;3.85;;;3.55;;
77701;SDS011;66868;42.708;23.404;2024-03-08T08:03:01;3.47;;;3.28;;
77701;SDS011;66868;42.708;23.404;2024-03-08T08:05:28;4.35;;;3.97;;
77701;SDS011;66868;42.708;23.404;2024-03-08T08:07:53;2.95;;;2.80;;
77701;SDS011;66868;42.708;23.404;2024-03-08T08:10:18;2.50;;;2.40;;
77701;SDS011;66868;42.708;23.404;2024-03-08T08:12:50;2.83;;;2.72;;
77701;SDS011;66868;42.708;23.404;2024-03-08T08:15:19;4.90;;;3.63;;
77701;SDS011;66868;42.708;23.404;2024-03-08T08:17:46;3.20;;;3.00;;
77701;SDS011;66868;42.708;23.404;2024-03-08T08:20:12;6.65;;;4.53;;
77701;SDS011;66868;42.708;23.404;2024-03-08T08:22:38;4.47;;;3.40;;
77701;SDS011;66868;42.708;23.404;2024-03-08T08:25:12;3.80;;;3.50;;
77701;SDS011;66868;42.708;23.404;2024-03-08T08:27:38;6.22;;;4.72;;
77701;SDS011;66868;42.708;23.404;2024-03-08T08:30:13;3.90;;;3.60;;
77701;SDS011;66868;42.708;23.404;2024-03-08T08:32:38;3.78;;;3.53;;
77701;SDS011;66868;42.708;23.404;2024-03-08T08:35:04;3.20;;;2.90;;
77701;SDS011;66868;42.708;23.404;2024-03-08T08:37:31;2.45;;;2.35;;
77701;SDS011;66868;42.708;23.404;2024-03-08T08:39:57;3.08;;;2.85;;
77701;SDS011;66868;42.708;23.404;2024-03-08T08:42:23;2.45;;;2.35;;
77701;SDS011;66868;42.708;23.404;2024-03-08T08:44:49;5.28;;;2.05;;
77701;SDS011;66868;42.708;23.404;2024-03-08T08:47:15;2.55;;;2.45;;
77701;SDS011;66868;42.708;23.404;2024-03-08T08:49:45;1.73;;;1.63;;
77701;SDS011;66868;42.708;23.404;2024-03-08T08:52:13;2.13;;;2.03;;
77701;SDS011;66868;42.708;23.404;2024-03-08T08:54:38;2.08;;;1.98;;
77701;SDS011;66868;42.708;23.404;2024-03-08T08:57:04;1.95;;;1.85;;
77701;SDS011;66868;42.708;23.404;2024-03-08T08:59:33;2.30;;;2.20;;
77701;SDS011;66868;42.708;23.404;2024-03-08T09:02:01;2.10;;;2.00;;
77701;SDS011;66868;42.708;23.404;2024-03-08T09:04:28;4.85;;;3.55;;
77701;SDS011;66868;42.708;23.404;2024-03-08T09:06:54;2.67;;;2.50;;
77701;SDS011;66868;42.708;23.404;2024-03-08T09:09:20;2.10;;;2.00;;
77701;SDS011;66868;42.708;23.404;2024-03-08T09:11:47;2.03;;;1.92;;
77701;SDS011;66868;42.708;23.404;2024-03-08T09:14:12;3.67;;;2.95;;
77701;SDS011;66868;42.708;23.404;2024-03-08T09:16:39;2.17;;;2.08;;
77701;SDS011;66868;42.708;23.404;2024-03-08T09:19:05;1.77;;;1.67;;
77701;SDS011;66868;42.708;23.404;2024-03-08T09:21:32;1.70;;;1.70;;
77701;SDS011;66868;42.708;23.404;2024-03-08T09:23:57;2.13;;;2.03;;
77701;SDS011;66868;42.708;23.404;2024-03-08T09:26:23;2.05;;;1.95;;
77701;SDS011;66868;42.708;23.404;2024-03-08T09:28:49;2.00;;;1.90;;
77701;SDS011;66868;42.708;23.404;2024-03-08T09:31:15;1.98;;;1.88;;
77701;SDS011;66868;42.708;23.404;2024-03-08T09:33:41;2.10;;;1.90;;
77701;SDS011;66868;42.708;23.404;2024-03-08T09:36:07;2.08;;;1.98;;
77701;SDS011;66868;42.708;23.404;2024-03-08T09:38:33;1.67;;;1.63;;
77701;SDS011;66868;42.708;23.404;2024-03-08T09:41:02;1.55;;;1.45;;
77701;SDS011;66868;42.708;23.404;2024-03-08T09:43:29;1.23;;;1.23;;
77701;SDS011;66868;42.708;23.404;2024-03-08T09:45:55;1.45;;;1.45;;
77701;SDS011;66868;42.708;23.404;2024-03-08T09:48:22;1.80;;;1.70;;
77701;SDS011;66868;42.708;23.404;2024-03-08T09:50:48;3.75;;;1.58;;
77701;SDS011;66868;42.708;23.404;2024-03-08T09:53:14;3.58;;;3.20;;
77701;SDS011;66868;42.708;23.404;2024-03-08T09:55:40;2.20;;;2.10;;
77701;SDS011;66868;42.708;23.404;2024-03-08T09:58:07;1.88;;;1.80;;
77701;SDS011;66868;42.708;23.404;2024-03-08T10:00:42;1.60;;;1.50;;
77701;SDS011;66868;42.708;23.404;2024-03-08T10:03:08;1.70;;;1.60;;
77701;SDS011;66868;42.708;23.404;2024-03-08T10:05:34;1.88;;;1.77;;
77701;SDS011;66868;42.708;23.404;2024-03-08T10:07:59;1.80;;;1.70;;
77701;SDS011;66868;42.708;23.404;2024-03-08T10:10:25;1.40;;;1.33;;
77701;SDS011;66868;42.708;23.404;2024-03-08T10:12:51;1.88;;;1.77;;
77701;SDS011;66868;42.708;23.404;2024-03-08T10:15:17;1.75;;;1.70;;
77701;SDS011;66868;42.708;23.404;2024-03-08T10:17:42;2.50;;;2.40;;
77701;SDS011;66868;42.708;23.404;2024-03-08T10:20:15;3.10;;;2.90;;
77701;SDS011;66868;42.708;23.404;2024-03-08T10:22:41;3.70;;;3.40;;
77701;SDS011;66868;42.708;23.404;2024-03-08T10:25:13;4.47;;;4.07;;
77701;SDS011;66868;42.708;23.404;2024-03-08T10:27:39;2.50;;;2.30;;
77701;SDS011;66868;42.708;23.404;2024-03-08T10:30:12;2.20;;;2.10;;
77701;SDS011;66868;42.708;23.404;2024-03-08T10:32:39;3.60;;;1.00;;
77701;SDS011;66868;42.708;23.404;2024-03-08T10:35:09;1.15;;;1.15;;
77701;SDS011;66868;42.708;23.404;2024-03-08T10:37:40;1.75;;;1.65;;
77701;SDS011;66868;42.708;23.404;2024-03-08T10:40:20;2.97;;;1.40;;
77701;SDS011;66868;42.708;23.404;2024-03-08T10:42:57;1.42;;;1.33;;
77701;SDS011;66868;42.708;23.404;2024-03-08T10:45:37;0.80;;;0.80;;
77701;SDS011;66868;42.708;23.404;2024-03-08T10:48:17;0.93;;;0.93;;
77701;SDS011;66868;42.708;23.404;2024-03-08T10:50:49;1.23;;;1.20;;
77701;SDS011;66868;42.708;23.404;2024-03-08T10:53:15;1.08;;;1.00;;
77701;SDS011;66868;42.708;23.404;2024-03-08T10:55:43;1.00;;;1.00;;
77701;SDS011;66868;42.708;23.404;2024-03-08T10:58:10;1.10;;;1.10;;
77701;SDS011;66868;42.708;23.404;2024-03-08T11:00:36;0.90;;;0.90;;
77701;SDS011;66868;42.708;23.404;2024-03-08T11:03:02;0.80;;;0.80;;
77701;SDS011;66868;42.708;23.404;2024-03-08T11:08:01;0.82;;;0.82;;
77701;SDS011;66868;42.708;23.404;2024-03-08T11:10:28;0.90;;;0.90;;
77701;SDS011;66868;42.708;23.404;2024-03-08T11:12:54;1.38;;;1.27;;
77701;SDS011;66868;42.708;23.404;2024-03-08T11:15:19;1.08;;;1.08;;
77701;SDS011;66868;42.708;23.404;2024-03-08T11:17:45;0.98;;;0.98;;
77701;SDS011;66868;42.708;23.404;2024-03-08T11:20:19;1.65;;;1.65;;
77701;SDS011;66868;42.708;23.404;2024-03-08T11:22:55;1.40;;;1.30;;
77701;SDS011;66868;42.708;23.404;2024-03-08T11:25:33;1.67;;;1.58;;
77701;SDS011;66868;42.708;23.404;2024-03-08T11:30:45;2.30;;;2.10;;
77701;SDS011;66868;42.708;23.404;2024-03-08T11:33:16;1.90;;;1.80;;
77701;SDS011;66868;42.708;23.404;2024-03-08T11:35:42;1.55;;;1.45;;
77701;SDS011;66868;42.708;23.404;2024-03-08T11:38:11;0.80;;;0.80;;
77701;SDS011;66868;42.708;23.404;2024-03-08T11:40:38;1.20;;;1.00;;
77701;SDS011;66868;42.708;23.404;2024-03-08T11:43:05;0.93;;;0.93;;
77701;SDS011;66868;42.708;23.404;2024-03-08T11:45:32;1.52;;;1.13;;
77701;SDS011;66868;42.708;23.404;2024-03-08T11:48:01;1.20;;;1.20;;
77701;SDS011;66868;42.708;23.404;2024-03-08T11:50:28;2.05;;;1.10;;
77701;SDS011;66868;42.708;23.404;2024-03-08T11:52:59;1.00;;;1.00;;
77701;SDS011;66868;42.708;23.404;2024-03-08T11:55:27;1.17;;;1.17;;
77701;SDS011;66868;42.708;23.404;2024-03-08T11:57:59;1.27;;;1.27;;
77701;SDS011;66868;42.708;23.404;2024-03-08T12:00:28;1.23;;;1.23;;
77701;SDS011;66868;42.708;23.404;2024-03-08T12:03:03;1.00;;;1.00;;
77701;SDS011;66868;42.708;23.404;2024-03-08T12:05:30;1.08;;;1.08;;
77701;SDS011;66868;42.708;23.404;2024-03-08T12:07:58;4.88;;;0.80;;
77701;SDS011;66868;42.708;23.404;2024-03-08T12:10:24;1.17;;;1.17;;
77701;SDS011;66868;42.708;23.404;2024-03-08T12:12:51;2.45;;;1.05;;
77701;SDS011;66868;42.708;23.404;2024-03-08T12:15:18;0.90;;;0.90;;
77701;SDS011;66868;42.708;23.404;2024-03-08T12:17:49;1.30;;;1.30;;
77701;SDS011;66868;42.708;23.404;2024-03-08T12:20:16;1.63;;;1.52;;
77701;SDS011;66868;42.708;23.404;2024-03-08T12:22:43;2.25;;;1.30;;
77701;SDS011;66868;42.708;23.404;2024-03-08T12:25:12;1.60;;;1.42;;
77701;SDS011;66868;42.708;23.404;2024-03-08T12:27:42;1.42;;;1.42;;
77701;SDS011;66868;42.708;23.404;2024-03-08T12:30:24;1.20;;;1.20;;
77701;SDS011;66868;42.708;23.404;2024-03-08T12:32:57;1.08;;;1.08;;
77701;SDS011;66868;42.708;23.404;2024-03-08T12:35:25;0.80;;;0.80;;
77701;SDS011;66868;42.708;23.404;2024-03-08T12:37:52;1.17;;;1.17;;
77701;SDS011;66868;42.708;23.404;2024-03-08T12:40:19;2.60;;;0.90;;
77701;SDS011;66868;42.708;23.404;2024-03-08T12:42:57;0.80;;;0.80;;
77701;SDS011;66868;42.708;23.404;2024-03-08T12:45:23;0.63;;;0.63;;
77701;SDS011;66868;42.708;23.404;2024-03-08T12:47:52;2.38;;;0.82;;
77701;SDS011;66868;42.708;23.404;2024-03-08T12:50:21;0.70;;;0.70;;
77701;SDS011;66868;42.708;23.404;2024-03-08T12:52:47;0.88;;;0.88;;
77701;SDS011;66868;42.708;23.404;2024-03-08T12:55:17;3.13;;;1.00;;
77701;SDS011;66868;42.708;23.404;2024-03-08T12:57:43;0.90;;;0.90;;
77701;SDS011;66868;42.708;23.404;2024-03-08T13:00:10;0.80;;;0.80;;
77701;SDS011;66868;42.708;23.404;2024-03-08T13:02:44;1.13;;;1.13;;
77701;SDS011;66868;42.708;23.404;2024-03-08T13:05:10;0.77;;;0.77;;
77701;SDS011;66868;42.708;23.404;2024-03-08T13:07:39;0.80;;;0.80;;
77701;SDS011;66868;42.708;23.404;2024-03-08T13:10:05;10.55;;;1.55;;
77701;SDS011;66868;42.708;23.404;2024-03-08T13:12:32;1.20;;;1.20;;
77701;SDS011;66868;42.708;23.404;2024-03-08T13:14:58;0.80;;;0.80;;
77701;SDS011;66868;42.708;23.404;2024-03-08T13:17:23;3.92;;;1.00;;
77701;SDS011;66868;42.708;23.404;2024-03-08T13:19:49;1.63;;;0.90;;
77701;SDS011;66868;42.708;23.404;2024-03-08T13:22:15;0.60;;;0.60;;
77701;SDS011;66868;42.708;23.404;2024-03-08T13:24:42;0.80;;;0.80;;
77701;SDS011;66868;42.708;23.404;2024-03-08T13:27:08;1.48;;;0.70;;
77701;SDS011;66868;42.708;23.404;2024-03-08T13:29:50;1.65;;;1.58;;
77701;SDS011;66868;42.708;23.404;2024-03-08T13:32:16;1.38;;;1.27;;
77701;SDS011;66868;42.708;23.404;2024-03-08T13:34:45;0.82;;;0.82;;
77701;SDS011;66868;42.708;23.404;2024-03-08T13:37:10;0.85;;;0.85;;
77701;SDS011;66868;42.708;23.404;2024-03-08T13:39:37;1.08;;;1.08;;
77701;SDS011;66868;42.708;23.404;2024-03-08T13:42:07;2.15;;;1.08;;
77701;SDS011;66868;42.708;23.404;2024-03-08T13:44:35;1.13;;;1.13;;
77701;SDS011;66868;42.708;23.404;2024-03-08T13:47:01;1.00;;;1.00;;
77701;SDS011;66868;42.708;23.404;2024-03-08T13:49:29;3.13;;;1.15;;
77701;SDS011;66868;42.708;23.404;2024-03-08T13:51:56;1.00;;;1.00;;
77701;SDS011;66868;42.708;23.404;2024-03-08T13:54:23;1.17;;;1.17;;
77701;SDS011;66868;42.708;23.404;2024-03-08T13:56:49;3.92;;;1.45;;
77701;SDS011;66868;42.708;23.404;2024-03-08T13:59:15;1.23;;;1.23;;
77701;SDS011;66868;42.708;23.404;2024-03-08T14:01:40;3.42;;;1.33;;
77701;SDS011;66868;42.708;23.404;2024-03-08T14:04:06;1.20;;;1.20;;
77701;SDS011;66868;42.708;23.404;2024-03-08T14:06:33;1.70;;;1.70;;
77701;SDS011;66868;42.708;23.404;2024-03-08T14:08:59;1.33;;;1.33;;
77701;SDS011;66868;42.708;23.404;2024-03-08T14:11:24;1.30;;;1.30;;
77701;SDS011;66868;42.708;23.404;2024-03-08T14:13:50;1.75;;;1.70;;
77701;SDS011;66868;42.708;23.404;2024-03-08T14:16:16;3.55;;;1.98;;
77701;SDS011;66868;42.708;23.404;2024-03-08T14:18:42;2.13;;;2.03;;
77701;SDS011;66868;42.708;23.404;2024-03-08T14:21:07;2.10;;;2.00;;
77701;SDS011;66868;42.708;23.404;2024-03-08T14:23:35;2.60;;;2.50;;
77701;SDS011;66868;42.708;23.404;2024-03-08T14:26:01;5.03;;;2.45;;
77701;SDS011;66868;42.708;23.404;2024-03-08T14:28:29;1.90;;;1.80;;
77701;SDS011;66868;42.708;23.404;2024-03-08T14:30:54;1.40;;;1.40;;
77701;SDS011;66868;42.708;23.404;2024-03-08T14:33:20;1.20;;;1.20;;
77701;SDS011;66868;42.708;23.404;2024-03-08T14:35:46;1.48;;;1.38;;
77701;SDS011;66868;42.708;23.404;2024-03-08T14:38:12;1.73;;;1.63;;